Crown Princess — ZCDM6 — position and weather

sailwx.info

Track history (hours):
 
Tides and Currents Weather Stations Pressure Air Temp Water Temp Dewpoint Dewpoint Depression Visibility Wind Speed Wind Dir Waves Ship Positions

Crown Princess

Last reported at 2016-May-03 11:16 UTC. Time now 2016-May-03 12:34 UTC.
Position N 38°37' W 123°51'.

Type: Ship. MMSI: 310500000.

Date/timePositionNaut miles runAvg speedWind from/ knotsBaromVisibWave heightAir tempDewpointWater temp
2016-May-03 11:16N 38°37' W 123°51'1419.2
2016-May-03 10:33N 38°27' W 123°40'1919.2
2016-May-03 09:33N 38°12' W 123°23'1818.3
2016-May-03 08:33N 37°58' W 123°08'1919.0
2016-May-03 07:33N 37°49' W 122°47'1413.9
2016-May-03 06:34N 37°49' W 122°30'5 4.2
2016-May-03 05:28N 37°48' W 122°24'0 0.0
2016-May-03 04:31N 37°48' W 122°24'0 0.0
2016-May-03 03:33N 37°48' W 122°24'0 0.0
2016-May-03 02:33N 37°48' W 122°24'0 0.0
2016-May-03 01:33N 37°48' W 122°24'0 0.0
2016-May-03 00:32N 37°48' W 122°24'0 0.0
2016-May-02 23:32N 37°48' W 122°24'0 0.0
2016-May-02 22:31N 37°48' W 122°24'0 0.0
2016-May-02 21:31N 37°48' W 122°24'0 0.0
2016-May-02 20:33N 37°48' W 122°24'0 0.0
2016-May-02 19:33N 37°48' W 122°24'0 0.0
2016-May-02 18:33N 37°48' W 122°24'0 0.0
2016-May-02 17:32N 37°48' W 122°24'0 0.0
2016-May-02 16:32N 37°48' W 122°24'0 0.0
2016-May-02 15:31N 37°48' W 122°24'0 0.0
2016-May-02 14:31N 37°48' W 122°24'0 0.1
2016-May-02 13:33N 37°49' W 122°24'7 6.8
2016-May-02 12:34N 37°47' W 122°32'1212.5
2016-May-02 11:33N 37°41' W 122°46'1010.5
2016-May-02 10:33N 37°35' W 122°57'1110.7
2016-May-02 09:33N 37°29' W 123°08'1010.2
2016-May-02 08:33N 37°24' W 123°19'10 9.6
2016-May-02 07:28N 37°16' W 123°28'910.2
2016-May-02 06:32N 37°08' W 123°21'9 9.6
2016-May-02 05:33N 37°01' W 123°14'1010.1
2016-May-02 04:33N 36°54' W 123°05'1010.0
2016-May-02 03:33N 36°45' W 122°58'1110.8
2016-May-02 02:33N 36°36' W 122°51'10 9.8
2016-May-02 01:33N 36°28' W 122°45'1312.6
2016-May-02 00:33N 36°17' W 122°37'1616.4
2016-May-01 23:33N 36°02' W 122°28'1614.3
2016-May-01 22:27N 35°49' W 122°17'9 9.8
2016-May-01 21:33N 35°42' W 122°10'10 9.6
2016-May-01 20:33N 35°35' W 122°03'10 9.6
2016-May-01 19:33N 35°27' W 121°55'1312.7
2016-May-01 18:31N 35°17' W 121°45'1414.5
2016-May-01 17:33N 35°06' W 121°34'1716.8
2016-May-01 16:32N 34°53' W 121°21'1414.4
2016-May-01 15:33N 34°42' W 121°10'1010.4
2016-May-01 14:33N 34°34' W 121°02'8510.1
2016-May-01 06:11N 34°06' W 119°24'3110.7
2016-May-01 03:18N 33°53' W 118°51'2910.3
2016-May-01 00:28N 33°39' W 118°20'6 6.6
2016-Apr-30 23:33N 33°44' W 118°16'1 1.1
2016-Apr-30 22:32N 33°45' W 118°17'0 0.0
2016-Apr-30 21:32N 33°45' W 118°17'0 0.0
2016-Apr-30 20:31N 33°45' W 118°17'0 0.0
2016-Apr-30 19:31N 33°45' W 118°17'0 0.0
2016-Apr-30 18:31N 33°45' W 118°17'0 0.0
2016-Apr-30 17:33N 33°45' W 118°17'0 0.0
2016-Apr-30 16:33N 33°45' W 118°17'0 0.0
2016-Apr-30 15:32N 33°45' W 118°17'0 0.0
2016-Apr-30 14:32N 33°45' W 118°17'0 0.0
2016-Apr-30 13:32N 33°45' W 118°17'4 3.9
2016-Apr-30 12:33N 33°42' W 118°14'1211.8
2016-Apr-30 11:32N 33°31' W 118°08'1414.6
2016-Apr-30 10:33N 33°17' W 118°02'1212.3
2016-Apr-30 09:33N 33°06' W 117°56'1211.7
2016-Apr-30 08:34N 32°55' W 117°51'1212.2
2016-Apr-30 07:34N 32°44' W 117°46'1313.1
2016-Apr-30 06:33N 32°33' W 117°38'1312.5
2016-Apr-30 05:33N 32°23' W 117°29'1312.6
2016-Apr-30 04:32N 32°14' W 117°18'13 0.5
2016-Apr-29 04:27N 32°23' W 117°29'1010.6
2016-Apr-29 03:32N 32°30' W 117°22'1110.9
2016-Apr-29 02:34N 32°38' W 117°13'5 5.4
2016-Apr-29 01:33N 32°43' W 117°10'0 0.0
2016-Apr-29 00:32N 32°43' W 117°10'0 0.0
2016-Apr-28 23:32N 32°43' W 117°10'0 0.0
2016-Apr-28 22:31N 32°43' W 117°10'0 0.0
2016-Apr-28 21:31N 32°43' W 117°10'0 0.0
2016-Apr-28 20:28N 32°43' W 117°10'0 0.0
2016-Apr-28 19:33N 32°43' W 117°10'0 0.0
2016-Apr-28 18:33N 32°43' W 117°10'0 0.0
2016-Apr-28 17:32N 32°43' W 117°10'0 0.0
2016-Apr-28 16:32N 32°43' W 117°10'0 0.0
2016-Apr-28 15:31N 32°43' W 117°10'0 0.0
2016-Apr-28 14:31N 32°43' W 117°10'2 1.9
2016-Apr-28 13:33N 32°43' W 117°13'9 8.6
2016-Apr-28 12:33N 32°37' W 117°20'1413.6
2016-Apr-28 11:33N 32°44' W 117°34'1515.4
2016-Apr-28 10:33N 32°56' W 117°46'1716.5
2016-Apr-28 09:33N 33°09' W 117°58'1515.2
2016-Apr-28 08:33N 33°22' W 118°08'1413.8
2016-Apr-28 07:33N 33°34' W 118°16'124 5.6
2016-Apr-27 09:28N 34°20' W 120°34'2813.0
2016-Apr-27 07:19N 34°35' W 121°03'1814.3
2016-Apr-27 06:03N 34°49' W 121°18'1014.0
2016-Apr-27 05:22N 34°56' W 121°25'1113.7
2016-Apr-27 04:33N 35°04' W 121°34'1413.7
2016-Apr-27 03:33N 35°15' W 121°45'1414.2
2016-Apr-27 02:34N 35°26' W 121°56'1413.9
2016-Apr-27 01:33N 35°37' W 122°07'1313.6
2016-Apr-27 00:33N 35°47' W 122°17'1413.7
2016-Apr-26 23:33N 35°58' W 122°28'1616.0
2016-Apr-26 22:33N 36°11' W 122°39'1615.7
2016-Apr-26 21:33N 36°24' W 122°49'1515.3
2016-Apr-26 20:33N 36°38' W 122°59'1614.4
2016-Apr-26 19:26N 36°54' W 122°55'1314.5
2016-Apr-26 18:31N 37°06' W 122°51'1414.6
2016-Apr-26 17:33N 37°19' W 122°43'1514.5
2016-Apr-26 16:33N 37°33' W 122°44'1313.2
2016-Apr-26 15:33N 37°46' W 122°39'1212.0
2016-Apr-26 14:33N 37°48' W 122°24'0 0.0
2016-Apr-26 13:32N 37°48' W 122°24'0 0.0
2016-Apr-26 12:31N 37°48' W 122°24'0 0.0
2016-Apr-26 11:31N 37°48' W 122°24'0 0.0
2016-Apr-26 10:33N 37°48' W 122°24'0 0.0
2016-Apr-26 09:30N 37°48' W 122°24'0 0.0
2016-Apr-26 08:32N 37°48' W 122°24'0 0.0
2016-Apr-26 07:32N 37°48' W 122°24'0 0.0
2016-Apr-26 06:28N 37°48' W 122°24'0 0.0
2016-Apr-26 05:28N 37°48' W 122°24'0 0.0
2016-Apr-26 04:28N 37°48' W 122°24'0 0.0
2016-Apr-26 03:33N 37°48' W 122°24'0 0.0
2016-Apr-26 02:33N 37°48' W 122°24'0 0.0
2016-Apr-26 01:32N 37°48' W 122°24'0 0.0
2016-Apr-26 00:32N 37°48' W 122°24'0 0.0
2016-Apr-25 23:31N 37°48' W 122°24'0 0.0
2016-Apr-25 22:31N 37°48' W 122°24'0 0.0
2016-Apr-25 21:31N 37°48' W 122°24'0 0.0
2016-Apr-25 20:27N 37°48' W 122°24'0 0.0
2016-Apr-25 19:33N 37°48' W 122°24'0 0.0
2016-Apr-25 18:32N 37°48' W 122°24'0 0.0
2016-Apr-25 17:29N 37°48' W 122°24'0 0.0
2016-Apr-25 16:32N 37°48' W 122°24'0 0.0
2016-Apr-25 15:25N 37°48' W 122°24'0 0.2
2016-Apr-25 14:33N 37°48' W 122°24'7 7.0
2016-Apr-25 13:33N 37°47' W 122°33'9 9.1
2016-Apr-25 12:33N 37°41' W 122°40'8 8.4
2016-Apr-25 11:33N 37°32' W 122°40'1110.8
2016-Apr-25 10:33N 37°21' W 122°40'1110.8
2016-Apr-25 09:33N 37°11' W 122°43'1211.9
2016-Apr-25 08:33N 36°60' W 122°48'2510.8
2016-Apr-25 06:14N 36°35' W 122°49'710.4
2016-Apr-25 05:33N 36°29' W 122°45'1010.2
2016-Apr-25 04:33N 36°19' W 122°39'1010.3
2016-Apr-25 03:33N 36°10' W 122°33'1110.7
2016-Apr-25 02:33N 36°01' W 122°27'1010.2
2016-Apr-25 01:33N 35°52' W 122°20'10 9.5
2016-Apr-25 00:33N 35°45' W 122°13'10 9.7
2016-Apr-24 23:32N 35°37' W 122°05'1010.1
2016-Apr-24 22:32N 35°29' W 121°57'1010.2
2016-Apr-24 21:32N 35°21' W 121°49'1010.3
2016-Apr-24 20:33N 35°14' W 121°41'129 9.6
2016-Apr-24 07:10N 34°07' W 119°27'46 9.7
2016-Apr-24 02:27N 33°46' W 118°38'9 9.7
2016-Apr-24 01:32N 33°42' W 118°29'1010.2
2016-Apr-24 00:34N 33°38' W 118°18'7 6.9
2016-Apr-23 23:33N 33°45' W 118°16'0 0.2
2016-Apr-23 22:26N 33°45' W 118°17'0 0.0
2016-Apr-23 19:21N 33°45' W 118°17'0 0.0
2016-Apr-23 13:30N 33°45' W 118°17'18 8.4
2016-Apr-23 11:24N 33°29' W 118°07'  
Track history (hours):
 
Tides and Currents Weather Stations Pressure Air Temp Water Temp Dewpoint Dewpoint Depression Visibility Wind Speed Wind Dir Waves Ship Positions

Crown Princess

Last reported at 2016-May-03 11:16 UTC. Time now 2016-May-03 12:34 UTC.
Position N 38°37' W 123°51'.

Type: Ship. MMSI: 310500000.

Date/timePositionNaut miles runAvg speedWind from/ knotsBaromVisibWave heightAir tempDewpointWater temp
2016-May-03 11:16N 38°37' W 123°51'1419.2
2016-May-03 10:33N 38°27' W 123°40'1919.2
2016-May-03 09:33N 38°12' W 123°23'1818.3
2016-May-03 08:33N 37°58' W 123°08'1919.0
2016-May-03 07:33N 37°49' W 122°47'1413.9
2016-May-03 06:34N 37°49' W 122°30'5 4.2
2016-May-03 05:28N 37°48' W 122°24'0 0.0
2016-May-03 04:31N 37°48' W 122°24'0 0.0
2016-May-03 03:33N 37°48' W 122°24'0 0.0
2016-May-03 02:33N 37°48' W 122°24'0 0.0
2016-May-03 01:33N 37°48' W 122°24'0 0.0
2016-May-03 00:32N 37°48' W 122°24'0 0.0
2016-May-02 23:32N 37°48' W 122°24'0 0.0
2016-May-02 22:31N 37°48' W 122°24'0 0.0
2016-May-02 21:31N 37°48' W 122°24'0 0.0
2016-May-02 20:33N 37°48' W 122°24'0 0.0
2016-May-02 19:33N 37°48' W 122°24'0 0.0
2016-May-02 18:33N 37°48' W 122°24'0 0.0
2016-May-02 17:32N 37°48' W 122°24'0 0.0
2016-May-02 16:32N 37°48' W 122°24'0 0.0
2016-May-02 15:31N 37°48' W 122°24'0 0.0
2016-May-02 14:31N 37°48' W 122°24'0 0.1
2016-May-02 13:33N 37°49' W 122°24'7 6.8
2016-May-02 12:34N 37°47' W 122°32'1212.5
2016-May-02 11:33N 37°41' W 122°46'1010.5
2016-May-02 10:33N 37°35' W 122°57'1110.7
2016-May-02 09:33N 37°29' W 123°08'1010.2
2016-May-02 08:33N 37°24' W 123°19'10 9.6
2016-May-02 07:28N 37°16' W 123°28'910.2
2016-May-02 06:32N 37°08' W 123°21'9 9.6
2016-May-02 05:33N 37°01' W 123°14'1010.1
2016-May-02 04:33N 36°54' W 123°05'1010.0
2016-May-02 03:33N 36°45' W 122°58'1110.8
2016-May-02 02:33N 36°36' W 122°51'10 9.8
2016-May-02 01:33N 36°28' W 122°45'1312.6
2016-May-02 00:33N 36°17' W 122°37'1616.4
2016-May-01 23:33N 36°02' W 122°28'1614.3
2016-May-01 22:27N 35°49' W 122°17'9 9.8
2016-May-01 21:33N 35°42' W 122°10'10 9.6
2016-May-01 20:33N 35°35' W 122°03'10 9.6
2016-May-01 19:33N 35°27' W 121°55'1312.7
2016-May-01 18:31N 35°17' W 121°45'1414.5
2016-May-01 17:33N 35°06' W 121°34'1716.8
2016-May-01 16:32N 34°53' W 121°21'1414.4
2016-May-01 15:33N 34°42' W 121°10'1010.4
2016-May-01 14:33N 34°34' W 121°02'8510.1
2016-May-01 06:11N 34°06' W 119°24'3110.7
2016-May-01 03:18N 33°53' W 118°51'2910.3
2016-May-01 00:28N 33°39' W 118°20'6 6.6
2016-Apr-30 23:33N 33°44' W 118°16'1 1.1
2016-Apr-30 22:32N 33°45' W 118°17'0 0.0
2016-Apr-30 21:32N 33°45' W 118°17'0 0.0
2016-Apr-30 20:31N 33°45' W 118°17'0 0.0
2016-Apr-30 19:31N 33°45' W 118°17'0 0.0
2016-Apr-30 18:31N 33°45' W 118°17'0 0.0
2016-Apr-30 17:33N 33°45' W 118°17'0 0.0
2016-Apr-30 16:33N 33°45' W 118°17'0 0.0
2016-Apr-30 15:32N 33°45' W 118°17'0 0.0
2016-Apr-30 14:32N 33°45' W 118°17'0 0.0
2016-Apr-30 13:32N 33°45' W 118°17'4 3.9
2016-Apr-30 12:33N 33°42' W 118°14'1211.8
2016-Apr-30 11:32N 33°31' W 118°08'1414.6
2016-Apr-30 10:33N 33°17' W 118°02'1212.3
2016-Apr-30 09:33N 33°06' W 117°56'1211.7
2016-Apr-30 08:34N 32°55' W 117°51'1212.2
2016-Apr-30 07:34N 32°44' W 117°46'1313.1
2016-Apr-30 06:33N 32°33' W 117°38'1312.5
2016-Apr-30 05:33N 32°23' W 117°29'1312.6
2016-Apr-30 04:32N 32°14' W 117°18'13 0.5
2016-Apr-29 04:27N 32°23' W 117°29'1010.6
2016-Apr-29 03:32N 32°30' W 117°22'1110.9
2016-Apr-29 02:34N 32°38' W 117°13'5 5.4
2016-Apr-29 01:33N 32°43' W 117°10'0 0.0
2016-Apr-29 00:32N 32°43' W 117°10'0 0.0
2016-Apr-28 23:32N 32°43' W 117°10'0 0.0
2016-Apr-28 22:31N 32°43' W 117°10'0 0.0
2016-Apr-28 21:31N 32°43' W 117°10'0 0.0
2016-Apr-28 20:28N 32°43' W 117°10'0 0.0
2016-Apr-28 19:33N 32°43' W 117°10'0 0.0
2016-Apr-28 18:33N 32°43' W 117°10'0 0.0
2016-Apr-28 17:32N 32°43' W 117°10'0 0.0
2016-Apr-28 16:32N 32°43' W 117°10'0 0.0
2016-Apr-28 15:31N 32°43' W 117°10'0 0.0
2016-Apr-28 14:31N 32°43' W 117°10'2 1.9
2016-Apr-28 13:33N 32°43' W 117°13'9 8.6
2016-Apr-28 12:33N 32°37' W 117°20'1413.6
2016-Apr-28 11:33N 32°44' W 117°34'1515.4
2016-Apr-28 10:33N 32°56' W 117°46'1716.5
2016-Apr-28 09:33N 33°09' W 117°58'1515.2
2016-Apr-28 08:33N 33°22' W 118°08'1413.8
2016-Apr-28 07:33N 33°34' W 118°16'124 5.6
2016-Apr-27 09:28N 34°20' W 120°34'2813.0
2016-Apr-27 07:19N 34°35' W 121°03'1814.3
2016-Apr-27 06:03N 34°49' W 121°18'1014.0
2016-Apr-27 05:22N 34°56' W 121°25'1113.7
2016-Apr-27 04:33N 35°04' W 121°34'1413.7
2016-Apr-27 03:33N 35°15' W 121°45'1414.2
2016-Apr-27 02:34N 35°26' W 121°56'1413.9
2016-Apr-27 01:33N 35°37' W 122°07'1313.6
2016-Apr-27 00:33N 35°47' W 122°17'1413.7
2016-Apr-26 23:33N 35°58' W 122°28'1616.0
2016-Apr-26 22:33N 36°11' W 122°39'1615.7
2016-Apr-26 21:33N 36°24' W 122°49'1515.3
2016-Apr-26 20:33N 36°38' W 122°59'1614.4
2016-Apr-26 19:26N 36°54' W 122°55'1314.5
2016-Apr-26 18:31N 37°06' W 122°51'1414.6
2016-Apr-26 17:33N 37°19' W 122°43'1514.5
2016-Apr-26 16:33N 37°33' W 122°44'1313.2
2016-Apr-26 15:33N 37°46' W 122°39'1212.0
2016-Apr-26 14:33N 37°48' W 122°24'0 0.0
2016-Apr-26 13:32N 37°48' W 122°24'0 0.0
2016-Apr-26 12:31N 37°48' W 122°24'0 0.0
2016-Apr-26 11:31N 37°48' W 122°24'0 0.0
2016-Apr-26 10:33N 37°48' W 122°24'0 0.0
2016-Apr-26 09:30N 37°48' W 122°24'0 0.0
2016-Apr-26 08:32N 37°48' W 122°24'0 0.0
2016-Apr-26 07:32N 37°48' W 122°24'0 0.0
2016-Apr-26 06:28N 37°48' W 122°24'0 0.0
2016-Apr-26 05:28N 37°48' W 122°24'0 0.0
2016-Apr-26 04:28N 37°48' W 122°24'0 0.0
2016-Apr-26 03:33N 37°48' W 122°24'0 0.0
2016-Apr-26 02:33N 37°48' W 122°24'0 0.0
2016-Apr-26 01:32N 37°48' W 122°24'0 0.0
2016-Apr-26 00:32N 37°48' W 122°24'0 0.0
2016-Apr-25 23:31N 37°48' W 122°24'0 0.0
2016-Apr-25 22:31N 37°48' W 122°24'0 0.0
2016-Apr-25 21:31N 37°48' W 122°24'0 0.0
2016-Apr-25 20:27N 37°48' W 122°24'0 0.0
2016-Apr-25 19:33N 37°48' W 122°24'0 0.0
2016-Apr-25 18:32N 37°48' W 122°24'0 0.0
2016-Apr-25 17:29N 37°48' W 122°24'0 0.0
2016-Apr-25 16:32N 37°48' W 122°24'0 0.0
2016-Apr-25 15:25N 37°48' W 122°24'0 0.2
2016-Apr-25 14:33N 37°48' W 122°24'7 7.0
2016-Apr-25 13:33N 37°47' W 122°33'9 9.1
2016-Apr-25 12:33N 37°41' W 122°40'8 8.4
2016-Apr-25 11:33N 37°32' W 122°40'1110.8
2016-Apr-25 10:33N 37°21' W 122°40'1110.8
2016-Apr-25 09:33N 37°11' W 122°43'1211.9
2016-Apr-25 08:33N 36°60' W 122°48'2510.8
2016-Apr-25 06:14N 36°35' W 122°49'710.4
2016-Apr-25 05:33N 36°29' W 122°45'1010.2
2016-Apr-25 04:33N 36°19' W 122°39'1010.3
2016-Apr-25 03:33N 36°10' W 122°33'1110.7
2016-Apr-25 02:33N 36°01' W 122°27'1010.2
2016-Apr-25 01:33N 35°52' W 122°20'10 9.5
2016-Apr-25 00:33N 35°45' W 122°13'10 9.7
2016-Apr-24 23:32N 35°37' W 122°05'1010.1
2016-Apr-24 22:32N 35°29' W 121°57'1010.2
2016-Apr-24 21:32N 35°21' W 121°49'1010.3
2016-Apr-24 20:33N 35°14' W 121°41'129 9.6
2016-Apr-24 07:10N 34°07' W 119°27'46 9.7
2016-Apr-24 02:27N 33°46' W 118°38'9 9.7
2016-Apr-24 01:32N 33°42' W 118°29'1010.2
2016-Apr-24 00:34N 33°38' W 118°18'7 6.9
2016-Apr-23 23:33N 33°45' W 118°16'0 0.2
2016-Apr-23 22:26N 33°45' W 118°17'0 0.0
2016-Apr-23 19:21N 33°45' W 118°17'0 0.0
2016-Apr-23 13:30N 33°45' W 118°17'18 8.4
2016-Apr-23 11:24N 33°29' W 118°07'  

Dump ship's entire track history